Time;durP1;ratioP1;P1;durP2;ratioP2;P2;SDS_P1;SDS_P2;PMS_P1;PMS_P2;Temp;Humidity;BMP_temperature;BMP_pressure;BME280_temperature;BME280_humidity;BME280_pressure;Samples;Min_cycle;Max_cycle;Signal;HPM_P1;HPM_P2
2022/08/13 00:01:36;;;;;;;7.55;5.32;;;24.70;99.90;;;;;;10254263;29;20292;-88
2022/08/13 00:17:19;;;;;;;5.72;5.13;;;24.70;99.90;;;;;;10267727;28;20835;-88
2022/08/13 00:22:38;;;;;;;5.70;5.20;;;24.60;99.90;;;;;;10252900;29;20284;-88
2022/08/13 00:27:47;;;;;;;5.72;5.07;;;24.60;99.90;;;;;;10255010;29;20293;-89
2022/08/13 00:33:10;;;;;;;5.63;5.15;;;24.60;99.90;;;;;;10252762;28;20288;-88
2022/08/13 00:38:22;;;;;;;7.45;5.40;;;24.60;99.90;;;;;;10251413;28;20238;-88
2022/08/13 00:43:38;;;;;;;6.03;5.43;;;24.60;99.90;;;;;;10253564;29;20207;-88
2022/08/13 00:48:41;;;;;;;5.75;5.22;;;24.60;99.90;;;;;;10254641;28;20270;-88
2022/08/13 00:53:54;;;;;;;5.03;4.45;;;24.60;99.90;;;;;;10251450;28;20312;-88
2022/08/13 00:59:12;;;;;;;5.93;5.30;;;24.50;99.90;;;;;;10251560;28;20313;-88
2022/08/13 01:04:20;;;;;;;5.80;5.30;;;24.50;99.90;;;;;;10251495;29;20241;-89
2022/08/13 01:09:30;;;;;;;5.97;5.32;;;24.50;99.90;;;;;;10251290;28;20615;-88
2022/08/13 01:14:55;;;;;;;5.85;5.25;;;24.50;99.90;;;;;;10252228;29;20333;-88
2022/08/13 01:19:58;;;;;;;6.10;5.60;;;24.50;99.90;;;;;;10251115;28;20612;-88
2022/08/13 01:25:07;;;;;;;5.97;5.38;;;24.40;99.90;;;;;;10251654;29;20254;-88
2022/08/13 01:30:14;;;;;;;5.63;5.13;;;24.40;99.90;;;;;;10251946;28;20234;-88
2022/08/13 01:35:20;;;;;;;6.22;5.63;;;24.40;99.90;;;;;;10251433;28;20660;-88
2022/08/13 01:40:23;;;;;;;6.20;5.60;;;24.40;99.90;;;;;;10250650;28;20626;-88
2022/08/13 01:45:28;;;;;;;6.60;6.00;;;24.30;99.90;;;;;;10251400;29;20636;-88
2022/08/13 01:50:31;;;;;;;5.28;4.88;;;24.30;99.90;;;;;;10248008;28;20246;-88
2022/08/13 01:55:42;;;;;;;5.47;4.97;;;24.30;99.90;;;;;;10250049;28;20254;-88
2022/08/13 02:01:06;;;;;;;5.50;5.00;;;24.30;99.90;;;;;;10247972;28;20246;-88
2022/08/13 02:06:11;;;;;;;5.82;5.32;;;24.30;99.90;;;;;;10249130;29;20230;-89
2022/08/13 02:11:36;;;;;;;5.90;5.30;;;24.30;99.90;;;;;;10248374;28;20269;-88
2022/08/13 02:16:47;;;;;;;7.50;5.93;;;24.30;99.90;;;;;;10249278;28;20762;-88
2022/08/13 02:21:56;;;;;;;5.53;5.00;;;24.30;99.90;;;;;;10249327;29;20261;-88
2022/08/13 02:27:03;;;;;;;5.47;4.90;;;24.30;99.90;;;;;;10250027;29;20616;-89
2022/08/13 02:32:06;;;;;;;5.68;5.25;;;24.30;99.90;;;;;;10246346;28;20249;-88
2022/08/13 02:37:21;;;;;;;5.57;5.07;;;24.30;99.90;;;;;;10247881;28;20235;-88
2022/08/13 02:42:44;;;;;;;5.57;5.07;;;24.30;99.90;;;;;;10248045;28;20237;-88
2022/08/13 02:47:48;;;;;;;5.65;5.18;;;24.30;99.90;;;;;;10248163;29;20241;-88
2022/08/13 02:52:51;;;;;;;5.85;5.35;;;24.30;99.90;;;;;;10246119;28;20261;-88
2022/08/13 02:58:00;;;;;;;6.78;4.82;;;24.20;99.90;;;;;;10246712;28;20694;-88
2022/08/13 03:03:04;;;;;;;5.93;5.32;;;24.20;99.90;;;;;;10246806;29;20746;-89
2022/08/13 03:08:13;;;;;;;6.25;5.68;;;24.20;99.90;;;;;;10245994;29;20654;-89
2022/08/13 03:13:38;;;;;;;5.68;5.18;;;24.10;99.90;;;;;;10244449;28;20246;-89
2022/08/13 03:18:47;;;;;;;6.43;5.80;;;24.10;99.90;;;;;;10240691;29;20225;-88
2022/08/13 03:23:56;;;;;;;6.75;6.10;;;24.10;99.90;;;;;;10245817;28;20265;-89
2022/08/13 03:29:06;;;;;;;5.22;4.78;;;24.10;99.90;;;;;;10247573;29;20230;-88
2022/08/13 03:34:10;;;;;;;6.38;5.55;;;24.10;99.90;;;;;;10241219;28;20652;-88
2022/08/13 03:39:13;;;;;;;5.70;5.20;;;24.10;99.90;;;;;;10248166;29;20623;-88
2022/08/13 03:44:15;;;;;;;6.30;5.70;;;24.10;99.90;;;;;;10251767;28;20666;-89
2022/08/13 03:49:21;;;;;;;6.72;6.03;;;24.10;99.90;;;;;;10253624;28;20257;-89
2022/08/13 03:54:30;;;;;;;6.20;5.50;;;24.10;99.90;;;;;;10258820;28;20298;-88
2022/08/13 03:59:33;;;;;;;6.20;5.70;;;24.10;99.90;;;;;;10250987;28;20644;-88
2022/08/13 04:04:51;;;;;;;5.88;5.32;;;24.20;99.90;;;;;;10252456;29;20253;-89
2022/08/13 04:09:54;;;;;;;6.25;5.65;;;24.10;99.90;;;;;;10253345;29;20685;-89
2022/08/13 04:14:57;;;;;;;6.75;6.07;;;24.10;99.90;;;;;;10255236;29;20743;-88
2022/08/13 04:20:09;;;;;;;16.58;5.80;;;24.10;99.90;;;;;;10253931;28;20234;-89
2022/08/13 04:25:15;;;;;;;6.10;5.55;;;24.10;99.90;;;;;;10252639;28;20289;-89
2022/08/13 04:30:41;;;;;;;7.00;5.88;;;24.00;99.90;;;;;;10239384;29;20215;-89
2022/08/13 04:35:45;;;;;;;5.82;5.32;;;24.10;99.90;;;;;;10254271;29;20254;-89
2022/08/13 04:41:01;;;;;;;6.28;5.68;;;24.10;99.90;;;;;;10248696;28;20277;-89
2022/08/13 04:46:05;;;;;;;6.07;5.47;;;24.00;99.90;;;;;;10248379;28;20603;-89
2022/08/13 04:51:08;;;;;;;6.47;5.93;;;24.00;99.90;;;;;;10254767;28;20206;-89
2022/08/13 04:56:12;;;;;;;7.05;6.38;;;24.10;99.90;;;;;;10253472;28;20199;-88
2022/08/13 05:01:21;;;;;;;5.97;5.43;;;24.00;99.90;;;;;;10268212;28;20234;-89
2022/08/13 05:06:45;;;;;;;6.50;5.90;;;24.00;99.90;;;;;;10250068;29;20237;-89
2022/08/13 05:11:54;;;;;;;6.15;5.65;;;24.00;99.90;;;;;;10269957;28;20234;-88
2022/08/13 05:17:07;;;;;;;6.78;6.18;;;24.00;99.90;;;;;;10266277;28;20239;-89
2022/08/13 05:22:15;;;;;;;6.90;6.25;;;23.90;99.90;;;;;;10251526;28;20238;-88
2022/08/13 05:27:31;;;;;;;6.53;5.93;;;23.90;99.90;;;;;;10252523;29;20696;-88
2022/08/13 05:32:40;;;;;;;6.82;6.22;;;23.90;99.90;;;;;;10250498;28;20627;-88
2022/08/13 05:37:49;;;;;;;6.40;5.78;;;23.90;99.90;;;;;;10250093;28;20289;-88
2022/08/13 05:43:14;;;;;;;6.65;5.95;;;23.90;99.90;;;;;;10250950;29;20288;-88
2022/08/13 05:48:16;;;;;;;6.70;6.10;;;23.90;99.90;;;;;;10250742;29;20237;-88
2022/08/13 05:53:22;;;;;;;6.65;6.05;;;23.90;99.90;;;;;;10250618;29;20288;-88
2022/08/13 05:58:26;;;;;;;6.07;5.47;;;23.90;99.90;;;;;;10248059;28;20672;-87
2022/08/13 06:03:31;;;;;;;6.20;5.68;;;23.80;99.90;;;;;;10243742;28;20328;-88
2022/08/13 06:08:56;;;;;;;6.05;5.55;;;23.80;99.90;;;;;;10257024;28;20226;-88
2022/08/13 06:14:00;;;;;;;6.35;5.75;;;23.80;99.90;;;;;;10245944;28;20706;-88
2022/08/13 06:19:12;;;;;;;6.72;6.13;;;23.90;99.90;;;;;;10247661;28;20285;-88
2022/08/13 06:24:17;;;;;;;6.95;6.25;;;23.90;99.90;;;;;;10247645;28;20289;-88
2022/08/13 06:29:20;;;;;;;6.20;5.70;;;23.90;99.90;;;;;;10247729;29;20234;-88
2022/08/13 06:34:36;;;;;;;6.13;5.53;;;23.90;99.90;;;;;;10231736;28;20282;-88
2022/08/13 06:39:43;;;;;;;6.63;6.03;;;24.00;99.90;;;;;;10234140;29;20676;-88
2022/08/13 06:45:04;;;;;;;6.45;5.85;;;24.00;99.90;;;;;;10246255;28;20238;-88
2022/08/13 06:50:10;;;;;;;6.80;6.28;;;24.00;99.90;;;;;;10247292;28;20604;-88
2022/08/13 06:55:12;;;;;;;6.60;6.00;;;24.00;99.90;;;;;;10245641;28;20285;-88
2022/08/13 07:00:39;;;;;;;6.75;6.05;;;24.10;99.90;;;;;;10244193;28;20680;-88
2022/08/13 07:05:42;;;;;;;7.30;6.60;;;24.10;99.90;;;;;;10236164;28;20230;-88
2022/08/13 07:11:21;;;;;;;6.35;5.75;;;24.20;99.90;;;;;;10246559;29;20237;-88
2022/08/13 07:16:16;;;;;;;6.60;6.00;;;24.20;99.90;;;;;;10246781;28;20253;-88
2022/08/13 07:21:29;;;;;;;6.43;5.82;;;24.20;99.90;;;;;;10245535;28;20233;-88
2022/08/13 07:26:45;;;;;;;10.93;8.05;;;24.20;99.90;;;;;;10229819;28;20775;-88
2022/08/13 07:31:48;;;;;;;14.18;10.43;;;24.20;99.90;;;;;;10246370;28;20322;-89
2022/08/13 07:37:06;;;;;;;13.38;8.23;;;24.00;99.90;;;;;;10258242;28;20237;-87
2022/08/13 07:42:10;;;;;;;8.95;7.72;;;23.60;99.90;;;;;;10244875;29;20230;-87
2022/08/13 07:47:15;;;;;;;10.65;8.50;;;23.90;99.90;;;;;;10244740;28;20253;-86
2022/08/13 07:52:29;;;;;;;8.98;8.18;;;24.20;99.90;;;;;;10261065;28;20246;-87
2022/08/13 07:57:33;;;;;;;8.68;7.88;;;24.50;99.90;;;;;;10246324;28;20692;-87
2022/08/13 08:02:40;;;;;;;7.43;6.75;;;24.40;99.90;;;;;;10246829;29;20312;-87
2022/08/13 08:07:51;;;;;;;10.18;6.78;;;24.50;99.90;;;;;;10244627;28;20281;-87
2022/08/13 08:13:12;;;;;;;8.45;7.70;;;24.60;99.90;;;;;;10246429;29;20646;-87
2022/08/13 08:18:15;;;;;;;10.38;9.10;;;24.80;99.90;;;;;;10246417;29;20301;-87
2022/08/13 08:23:38;;;;;;;8.05;7.35;;;24.70;99.90;;;;;;10244823;29;20289;-87
2022/08/13 08:28:52;;;;;;;7.55;6.85;;;24.80;99.90;;;;;;10249592;28;20631;-87
2022/08/13 08:33:58;;;;;;;10.65;7.50;;;24.80;99.90;;;;;;10253227;29;20828;-87
2022/08/13 08:44:32;;;;;;;6.78;6.10;;;24.90;99.90;;;;;;10252180;28;20233;-88
2022/08/13 08:49:38;;;;;;;7.68;6.88;;;25.00;99.90;;;;;;10251793;28;20663;-87
2022/08/13 08:54:46;;;;;;;7.30;6.68;;;25.00;99.90;;;;;;10251680;28;20261;-86
2022/08/13 08:59:49;;;;;;;7.45;6.63;;;25.00;99.90;;;;;;10255443;28;20325;-86
2022/08/13 09:04:55;;;;;;;6.65;6.05;;;25.00;99.90;;;;;;10252188;28;20625;-87
2022/08/13 09:10:04;;;;;;;7.63;6.93;;;25.10;99.90;;;;;;10251449;28;20231;-83
2022/08/13 09:15:14;;;;;;;13.05;11.75;;;25.10;99.90;;;;;;10253377;28;20635;-83
2022/08/13 09:20:23;;;;;;;6.93;6.22;;;25.10;99.90;;;;;;10252192;29;20257;-83
2022/08/13 09:25:26;;;;;;;7.03;6.43;;;25.30;99.90;;;;;;10249774;28;20293;-83
2022/08/13 09:30:31;;;;;;;9.95;8.95;;;25.40;99.90;;;;;;10251263;28;20678;-83
2022/08/13 09:35:34;;;;;;;13.65;11.95;;;25.50;99.90;;;;;;10250512;29;20250;-82
2022/08/13 09:40:45;;;;;;;15.18;11.23;;;25.10;99.90;;;;;;10250620;28;20241;-83
2022/08/13 09:45:57;;;;;;;12.30;8.98;;;25.30;99.90;;;;;;10241186;28;20269;-83
2022/08/13 09:51:02;;;;;;;10.55;9.45;;;25.20;99.90;;;;;;10248808;28;20299;-83
2022/08/13 09:56:08;;;;;;;8.88;8.07;;;25.50;99.90;;;;;;10247662;29;20257;-82
2022/08/13 10:01:13;;;;;;;9.82;8.68;;;25.70;99.90;;;;;;10245191;28;20262;-82
2022/08/13 10:06:38;;;;;;;9.27;8.48;;;25.90;99.90;;;;;;10246500;28;20245;-84
2022/08/13 10:11:43;;;;;;;9.07;8.32;;;25.90;99.90;;;;;;10245125;28;20292;-83
2022/08/13 10:17:06;;;;;;;9.90;9.05;;;25.90;99.90;;;;;;10248183;28;20308;-83
2022/08/13 10:22:09;;;;;;;10.10;9.10;;;25.70;99.90;;;;;;10247636;28;20238;-83
2022/08/13 10:27:13;;;;;;;9.32;8.52;;;25.50;99.90;;;;;;10249210;28;20238;-82
2022/08/13 10:32:15;;;;;;;9.00;8.20;;;25.30;99.90;;;;;;10247684;29;20667;-82
2022/08/13 10:37:21;;;;;;;10.80;8.98;;;25.50;99.90;;;;;;10247824;28;20713;-82
2022/08/13 10:42:24;;;;;;;9.60;8.70;;;25.40;99.90;;;;;;10248057;28;20750;-82
2022/08/13 10:47:27;;;;;;;12.75;9.30;;;25.40;99.90;;;;;;10241800;28;20313;-82
2022/08/13 10:52:49;;;;;;;9.52;8.73;;;25.30;99.90;;;;;;10241658;28;20308;-82
2022/08/13 10:57:59;;;;;;;8.88;8.18;;;25.10;99.90;;;;;;10245160;28;20308;-80
2022/08/13 11:03:15;;;;;;;9.27;8.38;;;25.10;99.90;;;;;;10235223;29;20324;-84
2022/08/13 11:08:19;;;;;;;9.05;8.25;;;24.90;99.90;;;;;;10279397;28;20663;-83
2022/08/13 11:13:36;;;;;;;8.80;8.10;;;24.90;99.90;;;;;;10247822;29;20350;-82
2022/08/13 11:18:57;;;;;;;8.73;7.90;;;24.80;99.90;;;;;;10230787;28;20296;-82
2022/08/13 11:24:00;;;;;;;8.57;7.75;;;24.80;99.90;;;;;;10246351;28;21061;-81
2022/08/13 11:29:03;;;;;;;13.73;8.23;;;24.90;99.90;;;;;;10247121;29;20265;-79
2022/08/13 11:34:07;;;;;;;9.40;8.52;;;25.00;99.90;;;;;;10244186;28;20328;-79
2022/08/13 11:39:16;;;;;;;9.18;8.05;;;25.10;99.90;;;;;;10230515;29;20670;-78
2022/08/13 11:44:18;;;;;;;8.60;7.90;;;25.30;99.90;;;;;;10240509;28;20230;-79
2022/08/13 11:49:21;;;;;;;8.65;7.90;;;25.40;99.90;;;;;;10240564;29;20644;-79
2022/08/13 11:54:24;;;;;;;8.38;7.47;;;25.40;99.90;;;;;;10238540;29;20237;-79
2022/08/13 11:59:34;;;;;;;9.27;8.30;;;25.40;99.90;;;;;;10238342;28;20771;-78
2022/08/13 12:04:46;;;;;;;15.20;7.32;;;25.30;99.90;;;;;;10257226;28;20242;-79
2022/08/13 12:09:56;;;;;;;13.35;8.15;;;25.30;99.90;;;;;;10247071;29;20299;-78
2022/08/13 12:15:00;;;;;;;8.57;7.68;;;25.50;99.90;;;;;;10245148;28;20380;-78
2022/08/13 12:20:05;;;;;;;16.00;7.90;;;25.50;99.90;;;;;;10244206;28;20364;-79
2022/08/13 12:25:24;;;;;;;9.05;8.07;;;25.60;99.90;;;;;;10245359;28;20292;-79
2022/08/13 12:30:50;;;;;;;11.57;8.68;;;25.70;99.90;;;;;;10246577;29;20285;-79
2022/08/13 12:35:52;;;;;;;14.68;8.60;;;25.80;99.90;;;;;;10261141;28;20317;-79
2022/08/13 12:40:59;;;;;;;12.25;9.02;;;26.00;99.90;;;;;;9898386;28;10000197;-78
2022/08/13 12:46:19;;;;;;;9.73;8.82;;;25.80;99.90;;;;;;10243114;28;20289;-78
2022/08/13 12:51:36;;;;;;;11.07;9.25;;;25.90;99.90;;;;;;10257632;28;20301;-78
2022/08/13 12:56:56;;;;;;;10.45;8.82;;;26.00;99.90;;;;;;10244218;28;20657;-78
2022/08/13 13:02:00;;;;;;;9.75;8.60;;;25.90;99.90;;;;;;10243578;28;20253;-78
2022/08/13 13:07:03;;;;;;;14.10;9.18;;;25.80;99.90;;;;;;10226042;28;20242;-79
2022/08/13 13:12:10;;;;;;;9.70;8.75;;;25.70;99.90;;;;;;10239829;28;20305;-78
2022/08/13 13:17:14;;;;;;;10.07;9.10;;;25.80;99.90;;;;;;10242936;28;20241;-78
2022/08/13 13:22:36;;;;;;;9.02;8.10;;;25.80;99.90;;;;;;10242206;28;20366;-78
2022/08/13 13:27:40;;;;;;;11.95;8.75;;;26.10;99.90;;;;;;10242461;29;20775;-78
2022/08/13 13:32:47;;;;;;;9.55;8.48;;;26.20;99.90;;;;;;10242505;29;20700;-78
2022/08/13 13:37:54;;;;;;;7.97;7.25;;;26.00;99.90;;;;;;10242458;29;20305;-78
2022/08/13 13:43:08;;;;;;;8.63;7.70;;;26.20;99.90;;;;;;10242597;28;20366;-78
2022/08/13 13:48:28;;;;;;;8.20;7.57;;;26.30;99.90;;;;;;10241137;29;20229;-78
2022/08/13 13:53:33;;;;;;;9.23;8.43;;;26.40;99.90;;;;;;10259612;28;20894;-78
2022/08/13 13:58:55;;;;;;;8.98;7.47;;;26.40;99.90;;;;;;10242526;28;20293;-79
2022/08/13 14:04:01;;;;;;;9.02;8.13;;;26.80;99.90;;;;;;10239550;28;20727;-79
2022/08/13 14:09:06;;;;;;;8.70;7.90;;;26.70;99.90;;;;;;10239848;29;20680;-79
2022/08/13 14:14:09;;;;;;;10.57;7.82;;;26.60;99.90;;;;;;10239901;28;20282;-79
2022/08/13 14:19:14;;;;;;;9.43;7.38;;;26.40;99.90;;;;;;10235156;29;20781;-78
2022/08/13 14:24:40;;;;;;;9.00;7.15;;;26.30;99.90;;;;;;10238483;28;20672;-77
2022/08/13 14:29:47;;;;;;;8.02;7.28;;;26.10;99.90;;;;;;10237449;29;20674;-78
2022/08/13 14:35:00;;;;;;;8.38;7.57;;;26.10;99.90;;;;;;10236613;29;20327;-79
2022/08/13 14:40:09;;;;;;;9.07;8.00;;;26.00;99.90;;;;;;10237350;29;20277;-78
2022/08/13 14:50:57;;;;;;;8.57;7.70;;;26.00;99.90;;;;;;10236729;29;20357;-78
2022/08/13 14:56:00;;;;;;;12.13;8.75;;;25.80;99.90;;;;;;10236224;29;20654;-78
2022/08/13 15:01:03;;;;;;;8.88;7.97;;;25.80;99.90;;;;;;10241362;29;20246;-78
2022/08/13 15:06:08;;;;;;;8.95;8.20;;;25.70;99.90;;;;;;10239399;29;20691;-78
2022/08/13 15:11:13;;;;;;;9.10;8.25;;;25.80;99.90;;;;;;10240279;28;20234;-79
2022/08/13 15:16:20;;;;;;;8.13;7.30;;;25.90;99.90;;;;;;10241378;29;20309;-78
2022/08/13 15:21:23;;;;;;;12.13;8.52;;;25.80;99.90;;;;;;10242554;29;20253;-78
2022/08/13 15:26:45;;;;;;;9.13;8.23;;;25.60;99.90;;;;;;10242088;29;20229;-79
2022/08/13 15:31:49;;;;;;;8.90;7.63;;;25.80;99.90;;;;;;10241844;29;20230;-79
2022/08/13 15:36:51;;;;;;;8.73;7.72;;;26.10;99.90;;;;;;10243709;28;20301;-81
2022/08/13 15:42:06;;;;;;;9.60;7.95;;;25.80;99.90;;;;;;10247839;29;20226;-81
2022/08/13 15:47:16;;;;;;;8.63;7.93;;;25.90;99.90;;;;;;10248614;29;20289;-78
2022/08/13 15:52:23;;;;;;;8.80;8.00;;;26.20;99.90;;;;;;10245992;29;20234;-78
2022/08/13 15:57:27;;;;;;;8.40;7.60;;;26.10;99.90;;;;;;10243646;29;20298;-78
2022/08/13 16:02:35;;;;;;;7.43;6.72;;;26.00;99.90;;;;;;10241026;29;20374;-78
2022/08/13 16:08:00;;;;;;;8.90;8.10;;;26.20;99.90;;;;;;10239149;28;20711;-78
2022/08/13 16:13:06;;;;;;;9.35;7.68;;;26.20;99.90;;;;;;10243238;28;20280;-78
2022/08/13 16:18:13;;;;;;;8.63;7.90;;;26.50;99.90;;;;;;10237191;28;20273;-78
2022/08/13 16:23:18;;;;;;;8.55;7.85;;;26.20;99.90;;;;;;9866485;28;10000227;-78
2022/08/13 16:28:23;;;;;;;8.60;7.82;;;26.10;99.90;;;;;;10243272;28;20693;-79
2022/08/13 16:33:29;;;;;;;8.13;7.32;;;26.10;99.90;;;;;;10282153;28;20296;-79
2022/08/13 16:38:52;;;;;;;10.48;7.28;;;26.10;99.90;;;;;;10235072;28;20297;-79
2022/08/13 16:43:55;;;;;;;8.30;7.60;;;26.00;99.90;;;;;;10250759;29;20268;-79
2022/08/13 16:49:03;;;;;;;11.88;8.05;;;25.90;99.90;;;;;;10257181;28;20638;-78
2022/08/13 16:54:07;;;;;;;11.50;7.63;;;25.80;99.90;;;;;;9916403;28;9999890;-78
2022/08/13 16:59:32;;;;;;;7.97;7.38;;;25.90;99.90;;;;;;10251078;28;20198;-78
2022/08/13 17:10:21;;;;;;;8.63;7.38;;;25.80;99.90;;;;;;10249804;29;20290;-80
2022/08/13 17:15:25;;;;;;;11.73;8.30;;;25.70;99.90;;;;;;10251569;28;20749;-80
2022/08/13 17:20:29;;;;;;;9.57;7.75;;;25.70;99.90;;;;;;10250919;28;20688;-79
2022/08/13 17:25:37;;;;;;;9.52;8.63;;;25.60;99.90;;;;;;10249157;28;20238;-80
2022/08/13 17:30:41;;;;;;;10.00;8.95;;;25.40;99.90;;;;;;10250143;29;20298;-80
2022/08/13 17:35:46;;;;;;;9.32;8.43;;;25.30;99.90;;;;;;10250868;29;20277;-80
2022/08/13 17:40:50;;;;;;;9.15;8.30;;;25.20;99.90;;;;;;10250745;29;20226;-80
2022/08/13 17:45:56;;;;;;;10.05;8.25;;;25.10;99.90;;;;;;10250409;29;20328;-79
2022/08/13 17:51:02;;;;;;;11.80;7.35;;;25.00;99.90;;;;;;10250179;29;20295;-80
2022/08/13 17:56:17;;;;;;;9.27;8.48;;;24.80;99.90;;;;;;10249959;29;20654;-80
2022/08/13 18:01:23;;;;;;;9.57;8.32;;;24.70;99.90;;;;;;10248732;28;20309;-79
2022/08/13 18:06:38;;;;;;;8.93;8.02;;;24.50;99.90;;;;;;10248365;29;20319;-80
2022/08/13 18:11:45;;;;;;;9.90;9.07;;;24.40;99.90;;;;;;10249342;29;20826;-80
2022/08/13 18:16:48;;;;;;;8.88;8.15;;;24.40;99.90;;;;;;10247186;29;20262;-80
2022/08/13 18:22:11;;;;;;;9.93;8.80;;;24.30;99.90;;;;;;10248753;29;20265;-80
2022/08/13 18:27:13;;;;;;;9.82;8.82;;;24.20;99.90;;;;;;10248729;29;20305;-80
2022/08/13 18:32:24;;;;;;;9.80;8.90;;;24.20;99.90;;;;;;10243467;29;20712;-80
2022/08/13 18:37:33;;;;;;;9.55;8.60;;;24.10;99.90;;;;;;10244904;29;20265;-80
2022/08/13 18:42:46;;;;;;;10.10;9.00;;;23.90;99.90;;;;;;10251138;28;20234;-82
2022/08/13 18:47:54;;;;;;;14.43;8.75;;;24.50;99.90;;;;;;10238474;29;20246;-82
2022/08/13 18:52:57;;;;;;;9.30;8.35;;;24.80;99.90;;;;;;10248828;29;20229;-81
2022/08/13 18:58:20;;;;;;;9.50;8.13;;;25.10;99.90;;;;;;9903191;28;10000542;-81
2022/08/13 19:03:24;;;;;;;10.75;8.27;;;25.30;99.90;;;;;;10243491;29;20616;-82
2022/08/13 19:08:46;;;;;;;8.50;7.78;;;25.40;99.90;;;;;;10245383;29;20237;-81
2022/08/13 19:13:53;;;;;;;10.23;9.18;;;25.40;99.90;;;;;;10243878;28;20241;-82
2022/08/13 19:18:58;;;;;;;10.20;8.00;;;;;;;;;;10242949;29;20305;-82
2022/08/13 19:24:00;;;;;;;9.30;8.15;;;25.70;99.90;;;;;;10244199;29;20234;-82
2022/08/13 19:29:04;;;;;;;8.77;7.97;;;25.70;99.90;;;;;;10244312;29;20234;-81
2022/08/13 19:34:11;;;;;;;9.73;8.82;;;25.80;99.90;;;;;;10245155;29;20313;-81
2022/08/13 19:39:25;;;;;;;9.63;8.68;;;25.80;99.90;;;;;;10245750;29;20230;-81
2022/08/13 19:44:47;;;;;;;14.40;8.70;;;25.80;99.90;;;;;;10243145;29;20703;-80
2022/08/13 19:49:57;;;;;;;9.98;9.07;;;25.80;99.90;;;;;;10244317;29;20238;-80
2022/08/13 19:55:00;;;;;;;10.65;9.30;;;25.70;99.90;;;;;;10237899;29;20254;-80
2022/08/13 20:00:22;;;;;;;11.27;9.13;;;25.80;99.90;;;;;;10242842;29;21038;-80
2022/08/13 20:05:32;;;;;;;12.95;10.10;;;25.80;99.90;;;;;;10243153;29;20967;-80
2022/08/13 20:10:53;;;;;;;10.52;9.07;;;25.80;99.90;;;;;;10244036;29;20313;-80
2022/08/13 20:15:58;;;;;;;13.48;9.43;;;25.80;99.90;;;;;;10243106;29;20258;-80
2022/08/13 20:21:00;;;;;;;10.52;9.43;;;25.80;99.90;;;;;;10243105;29;20655;-81
2022/08/13 20:26:03;;;;;;;10.43;9.25;;;25.80;99.90;;;;;;10245651;28;20241;-80
2022/08/13 20:31:10;;;;;;;14.57;9.65;;;25.80;99.90;;;;;;10249193;28;20653;-81
2022/08/13 20:36:14;;;;;;;12.75;9.50;;;25.90;99.90;;;;;;10250491;28;20285;-81
2022/08/13 20:41:17;;;;;;;10.98;9.93;;;25.90;99.90;;;;;;10250354;29;20218;-81
2022/08/13 20:46:20;;;;;;;11.02;9.93;;;25.90;99.90;;;;;;10250793;29;20296;-81
2022/08/13 20:51:27;;;;;;;11.90;10.00;;;25.80;99.90;;;;;;10230640;29;20230;-81
2022/08/13 20:56:31;;;;;;;11.13;10.00;;;25.70;99.90;;;;;;10230811;29;20301;-81
2022/08/13 21:01:53;;;;;;;15.98;10.43;;;25.80;99.90;;;;;;10231779;29;20258;-80
2022/08/13 21:06:59;;;;;;;10.93;9.93;;;25.30;99.90;;;;;;10231782;29;20234;-80
2022/08/13 21:12:09;;;;;;;12.90;9.63;;;25.70;99.90;;;;;;10232728;29;20231;-79
2022/08/13 21:17:12;;;;;;;11.55;9.63;;;25.80;99.90;;;;;;10234099;28;20262;-79
2022/08/13 21:22:15;;;;;;;10.57;9.48;;;25.80;99.90;;;;;;10238796;29;20735;-79
2022/08/13 21:27:18;;;;;;;10.48;9.38;;;25.80;99.90;;;;;;10237292;28;20277;-79
2022/08/13 21:32:55;;;;;;;10.35;9.45;;;25.90;99.90;;;;;;10230226;29;20226;-79
2022/08/13 21:37:58;;;;;;;10.02;8.70;;;25.90;99.90;;;;;;10224982;29;20239;-80
2022/08/13 21:43:06;;;;;;;9.90;8.95;;;25.80;99.90;;;;;;10237601;29;20230;-82
2022/08/13 21:48:11;;;;;;;10.63;9.40;;;25.80;99.90;;;;;;10237884;29;20266;-80
2022/08/13 21:53:22;;;;;;;10.38;9.45;;;25.80;99.90;;;;;;10240119;29;20294;-79
2022/08/13 21:58:29;;;;;;;10.10;9.13;;;25.80;99.90;;;;;;10244048;28;20305;-79
2022/08/13 22:03:32;;;;;;;10.00;8.55;;;25.70;99.90;;;;;;10248413;28;20715;-79
2022/08/13 22:08:55;;;;;;;10.15;8.98;;;25.70;99.90;;;;;;10251022;29;20230;-80
2022/08/13 22:13:58;;;;;;;9.98;9.00;;;25.70;99.90;;;;;;10260236;28;20299;-79
2022/08/13 22:19:02;;;;;;;12.38;9.20;;;25.70;99.90;;;;;;10255245;28;20265;-79
2022/08/13 22:24:06;;;;;;;10.02;9.07;;;25.70;99.90;;;;;;10248371;29;20319;-79
2022/08/13 22:34:29;;;;;;;10.13;9.23;;;25.60;99.90;;;;;;10249745;28;20644;-79
2022/08/13 22:39:56;;;;;;;8.57;7.85;;;25.60;99.90;;;;;;10244500;28;20281;-79
2022/08/13 22:45:00;;;;;;;10.00;9.00;;;25.60;99.90;;;;;;10237087;28;20686;-78
2022/08/13 22:50:04;;;;;;;8.68;7.88;;;25.50;99.90;;;;;;10243494;28;20630;-79
2022/08/13 22:55:13;;;;;;;9.50;8.60;;;25.50;99.90;;;;;;10222482;28;20226;-77
2022/08/13 23:00:16;;;;;;;9.30;8.50;;;25.50;99.90;;;;;;10244376;28;20633;-78
2022/08/13 23:05:20;;;;;;;9.40;8.60;;;25.40;99.90;;;;;;10245681;28;20614;-77
2022/08/13 23:10:24;;;;;;;9.70;8.63;;;25.40;99.90;;;;;;10247018;28;20766;-78
2022/08/13 23:15:28;;;;;;;9.25;8.43;;;25.40;99.90;;;;;;10245735;28;20234;-78
2022/08/13 23:20:34;;;;;;;9.73;8.75;;;25.30;99.90;;;;;;10245675;28;20260;-79
2022/08/13 23:25:40;;;;;;;10.00;9.00;;;25.30;99.90;;;;;;10247986;29;20229;-79
2022/08/13 23:30:46;;;;;;;9.48;8.57;;;25.30;99.90;;;;;;10238147;28;20624;-79
2022/08/13 23:35:48;;;;;;;10.43;8.48;;;25.30;99.90;;;;;;10241295;29;20611;-79
2022/08/13 23:41:00;;;;;;;9.02;8.23;;;25.30;99.90;;;;;;10246386;28;20683;-79
2022/08/13 23:46:02;;;;;;;8.85;7.95;;;25.30;99.90;;;;;;10247418;29;20241;-79
2022/08/13 23:51:06;;;;;;;9.65;8.85;;;25.20;99.90;;;;;;10246392;28;20246;-79
2022/08/13 23:56:08;;;;;;;8.68;7.97;;;25.20;99.90;;;;;;10248254;29;20250;-79
